Flight Track Log - Related Links

Times and Time Zones

All times are in EST time to prevent confusion due to time zone crossing. See the EJA831 flight status page for this flight to view local times or setup timezone preferences in your user account.

Time Position Orientation Groundspeed Altitude Reporting Facility
EST Latitude Longitude Course Direction KTS MPH feet Rate Location/Type
Fri 08:04:14 PM 37.8897 -80.3711 353° North 246 283 4,600  Level Indianapolis Center
Fri 08:05:16 PM 37.9681 -80.3739 358° North 254 292 9,600 4,732 Climbing Indianapolis Center
Fri 08:06:17 PM 38.0375 -80.3911 349° North 250 288 14,300 4,000 Climbing Indianapolis Center
Fri 08:07:19 PM 38.1117 -80.4064 351° North 264 304 17,800 3,387 Climbing Indianapolis Center
Fri 08:08:00 PM 38.3606 -80.5960 322° Northwest  Level Estimated
Fri 08:08:21 PM 38.1931 -80.4236 351° North 291 335 21,300  Level Indianapolis Center
Fri 08:09:00 PM 38.4443 -80.6291 353° North  Level Estimated
Fri 08:09:18 PM 38.2692 -80.4450 348° North 288 331 23,900  Level Washington Center
Fri 08:10:20 PM 38.3497 -80.4633 350° North 293 337 26,900 1,550 Climbing Washington Center
Fri 08:11:18 PM 38.4408 -80.4800 352° North 306 352 27,000 47 Climbing Washington Center
Fri 08:12:27 PM 38.5528 -80.4992 352° North 366 421 27,000  Level Indianapolis Center
Fri 08:13:28 PM 38.6539 -80.5211 350° North 366 421 27,000  Level Indianapolis Center
Fri 08:14:30 PM 38.7739 -80.5467 351° North 368 423 27,000  Level Indianapolis Center
Fri 08:15:31 PM 38.8742 -80.5675 351° North 366 421 27,000  Level Indianapolis Center
Fri 08:16:33 PM 38.9756 -80.5889 351° North 369 425 27,000  Level Indianapolis Center
Fri 08:17:35 PM 39.0756 -80.6111 350° North 365 420 27,000  Level Indianapolis Center
Fri 08:18:36 PM 39.1769 -80.6311 351° North 369 425 27,000  Level Indianapolis Center
Fri 08:19:38 PM 39.2781 -80.6544 350° North 368 423 27,000  Level Indianapolis Center
Fri 08:20:39 PM 39.3783 -80.6750 351° North 367 422 27,000  Level Indianapolis Center
Fri 08:21:41 PM 39.4997 -80.7025 350° North 368 423 27,000  Level Indianapolis Center
Fri 08:22:43 PM 39.5992 -80.7256 350° North 364 419 27,000  Level Indianapolis Center
Fri 08:23:44 PM 39.6983 -80.7461 351° North 361 415 27,000  Level Indianapolis Center
Fri 08:24:46 PM 39.7978 -80.7681 350° North 362 417 27,000  Level Indianapolis Center
Fri 08:25:47 PM 39.8964 -80.7903 350° North 360 414 27,000 -683 Level Indianapolis Center
Fri 08:26:49 PM 40.0031 -80.8128 351° North 362 417 25,600 -1,463 Descending Indianapolis Center
Fri 08:27:50 PM 40.1069 -80.8064 North 371 427 24,000 -780 Descending Indianapolis Center
Fri 08:28:52 PM 40.1878 -80.8742 327° Northwest 346 398 24,000  Level Indianapolis Center
Fri 08:29:54 PM 40.2611 -80.9511 321° Northwest 336 387 24,000  Level Indianapolis Center
Fri 08:30:55 PM 40.3342 -81.0278 321° Northwest 335 386 24,000 -98 Level Indianapolis Center
Fri 08:31:57 PM 40.4083 -81.1058 321° Northwest 335 386 23,800 -1,024 Descending Indianapolis Center
Fri 08:32:58 PM 40.4828 -81.1817 322° Northwest 337 388 21,900 -2,000 Descending Indianapolis Center
Fri 08:34:00 PM 40.5675 -81.2719 321° Northwest 333 383 19,700 -1,902 Descending Indianapolis Center
Fri 08:35:01 PM 40.6356 -81.3428 322° Northwest 315 362 18,000 -1,707 Descending Indianapolis Center
Fri 08:36:03 PM 40.7019 -81.4111 322° Northwest 303 349 16,200 -1,759 Descending Indianapolis Center
Fri 08:36:57 PM 40.7578 -81.4744 319° Northwest 298 343 14,600 -1,636 Descending Cleveland Center
Fri 08:37:31 PM 40.7892 -81.5033 325° Northwest 295 339 13,800 -1,667 Descending Cleveland Center
Fri 08:37:51 PM 40.8131 -81.5358 314° West 282 325 13,100 -1,704 Descending Cleveland Center
Fri 08:38:52 PM 40.8764 -81.6008 322° Northwest 283 326 11,500 -1,689 Descending Cleveland Center
Fri 08:39:34 PM 40.9242 -81.6469 324° Northwest 286 329 10,200 -1,500 Descending Cleveland Center
Fri 08:39:52 PM 40.9378 -81.6661 313° West 288 331 10,000 -871 Descending Cleveland Center
Fri 08:40:36 PM 40.9969 -81.6686 358° North 285 328 9,300 -982 Descending Cleveland Center
Fri 08:40:47 PM 41.0089 -81.6692 358° North 276 318 9,100 -290 Descending Cleveland Center
Fri 08:41:38 PM 41.0725 -81.6614 North 272 313 9,000 -269 Descending Cleveland Center
Fri 08:41:54 PM 41.0958 -81.6606 North 276 318 8,800 -1,355 Descending Cleveland Center
Fri 08:42:40 PM 41.1506 -81.6556 North 276 318 7,600 -1,700 Descending Cleveland Center
Fri 08:42:54 PM 41.1719 -81.6533 North 276 318 7,100 -1,574 Descending Cleveland Center
Fri 08:43:41 PM 41.2264 -81.6514 North 273 314 6,000 -1,574 Descending Cleveland Center
Fri 08:43:55 PM 41.2478 -81.6517 359° North 271 312 5,500 -1,765 Descending Cleveland Center
Fri 08:44:49 PM 41.3144 -81.6567 357° North 259 298 4,000 -1,376 Descending Cleveland Center
Fri 08:45:44 PM 41.3731 -81.6828 342° North 249 287 3,000 -1,071 Descending Cleveland Center
Fri 08:45:45 PM 41.3731 -81.6819 90° East 253 291 3,000  Level Cleveland Center
Fri 08:46:44 PM 41.4250 -81.7106 338° Northwest 172 198 3,000  Level Cleveland Center
Fri 08:46:47 PM 41.4239 -81.7097 151° Southeast 217 250 3,000 -375 Level Cleveland Center
Fri 08:47:48 PM 41.4356 -81.7494 291° West 150 173 2,600 -504 Descending Cleveland Center
Fri 08:48:46 PM 41.4347 -81.7875 268° West 96 110 2,000 -581 Descending Cleveland Center
Fri 08:48:50 PM 41.4358 -81.7864 37° Northeast 114 131 2,000 -393 Level Cleveland Center
Fri 08:49:47 PM 41.4294 -81.8231 257° West 98 113 1,600 -387 Descending Cleveland Center
Fri 08:49:52 PM 41.4303 -81.8217 51° Northeast 102 117 1,600 -727 Level Cleveland Center
Fri 08:50:53 PM 41.4142 -81.8506 233° Southwest 99 114 800 -787 Descending Cleveland Center

Login

Don't have an account? Register now (free) for customized features, flight alerts, and more!